sensor_id;sensor_type;location;lat;lon;timestamp;P1;durP1;ratioP1;P2;durP2;ratioP2
47021;SDS011;32779;52.264;6.154;2022-12-24T00:01:23;38.67;;;6.57;;
47021;SDS011;32779;52.264;6.154;2022-12-24T00:03:49;50.78;;;6.45;;
47021;SDS011;32779;52.264;6.154;2022-12-24T00:06:16;42.08;;;5.55;;
47021;SDS011;32779;52.264;6.154;2022-12-24T00:08:43;32.90;;;5.18;;
47021;SDS011;32779;52.264;6.154;2022-12-24T00:11:09;40.58;;;5.55;;
47021;SDS011;32779;52.264;6.154;2022-12-24T00:13:35;41.08;;;5.68;;
47021;SDS011;32779;52.264;6.154;2022-12-24T00:16:00;35.63;;;5.68;;
47021;SDS011;32779;52.264;6.154;2022-12-24T00:18:26;40.40;;;5.97;;
47021;SDS011;32779;52.264;6.154;2022-12-24T00:20:52;37.42;;;5.53;;
47021;SDS011;32779;52.264;6.154;2022-12-24T00:23:20;36.92;;;5.03;;
47021;SDS011;32779;52.264;6.154;2022-12-24T00:25:46;39.45;;;6.30;;
47021;SDS011;32779;52.264;6.154;2022-12-24T00:28:12;39.25;;;7.72;;
47021;SDS011;32779;52.264;6.154;2022-12-24T00:30:39;31.10;;;4.80;;
47021;SDS011;32779;52.264;6.154;2022-12-24T00:33:06;38.60;;;5.38;;
47021;SDS011;32779;52.264;6.154;2022-12-24T00:35:35;41.35;;;6.70;;
47021;SDS011;32779;52.264;6.154;2022-12-24T00:38:02;42.25;;;5.40;;
47021;SDS011;32779;52.264;6.154;2022-12-24T00:40:28;37.67;;;5.15;;
47021;SDS011;32779;52.264;6.154;2022-12-24T00:42:55;40.53;;;5.93;;
47021;SDS011;32779;52.264;6.154;2022-12-24T00:45:21;33.63;;;5.70;;
47021;SDS011;32779;52.264;6.154;2022-12-24T00:47:46;41.00;;;5.05;;
47021;SDS011;32779;52.264;6.154;2022-12-24T00:50:12;38.58;;;4.82;;
47021;SDS011;32779;52.264;6.154;2022-12-24T00:52:38;36.53;;;5.28;;
47021;SDS011;32779;52.264;6.154;2022-12-24T00:55:04;47.85;;;7.53;;
47021;SDS011;32779;52.264;6.154;2022-12-24T00:57:30;29.77;;;4.80;;
47021;SDS011;32779;52.264;6.154;2022-12-24T00:59:55;45.75;;;7.05;;
47021;SDS011;32779;52.264;6.154;2022-12-24T01:02:21;41.05;;;5.22;;
47021;SDS011;32779;52.264;6.154;2022-12-24T01:04:47;37.45;;;5.70;;
47021;SDS011;32779;52.264;6.154;2022-12-24T01:07:31;44.47;;;6.78;;
47021;SDS011;32779;52.264;6.154;2022-12-24T01:09:56;50.67;;;5.78;;
47021;SDS011;32779;52.264;6.154;2022-12-24T01:12:22;40.53;;;5.68;;
47021;SDS011;32779;52.264;6.154;2022-12-24T01:14:49;46.83;;;6.78;;
47021;SDS011;32779;52.264;6.154;2022-12-24T01:17:14;40.70;;;6.68;;
47021;SDS011;32779;52.264;6.154;2022-12-24T01:19:40;39.20;;;5.60;;
47021;SDS011;32779;52.264;6.154;2022-12-24T01:22:06;55.65;;;6.03;;
47021;SDS011;32779;52.264;6.154;2022-12-24T01:24:31;37.47;;;6.10;;
47021;SDS011;32779;52.264;6.154;2022-12-24T01:26:57;37.67;;;6.00;;
47021;SDS011;32779;52.264;6.154;2022-12-24T01:29:22;41.97;;;6.40;;
47021;SDS011;32779;52.264;6.154;2022-12-24T01:31:48;45.15;;;6.35;;
47021;SDS011;32779;52.264;6.154;2022-12-24T01:34:13;46.97;;;5.88;;
47021;SDS011;32779;52.264;6.154;2022-12-24T01:36:39;39.65;;;6.30;;
47021;SDS011;32779;52.264;6.154;2022-12-24T01:39:05;40.03;;;5.47;;
47021;SDS011;32779;52.264;6.154;2022-12-24T01:41:30;46.05;;;5.65;;
47021;SDS011;32779;52.264;6.154;2022-12-24T01:44:19;46.28;;;6.32;;
47021;SDS011;32779;52.264;6.154;2022-12-24T01:46:55;42.70;;;7.15;;
47021;SDS011;32779;52.264;6.154;2022-12-24T01:49:26;46.80;;;5.78;;
47021;SDS011;32779;52.264;6.154;2022-12-24T01:51:53;40.75;;;5.63;;
47021;SDS011;32779;52.264;6.154;2022-12-24T01:54:26;41.90;;;6.00;;
47021;SDS011;32779;52.264;6.154;2022-12-24T01:57:42;46.90;;;5.72;;
47021;SDS011;32779;52.264;6.154;2022-12-24T01:59:56;42.88;;;6.20;;
47021;SDS011;32779;52.264;6.154;2022-12-24T02:02:26;34.75;;;5.25;;
47021;SDS011;32779;52.264;6.154;2022-12-24T02:04:57;46.17;;;7.80;;
47021;SDS011;32779;52.264;6.154;2022-12-24T02:07:28;43.17;;;6.55;;
47021;SDS011;32779;52.264;6.154;2022-12-24T02:12:21;43.42;;;6.10;;
47021;SDS011;32779;52.264;6.154;2022-12-24T02:14:47;44.50;;;6.45;;
47021;SDS011;32779;52.264;6.154;2022-12-24T02:33:57;49.53;;;7.22;;
47021;SDS011;32779;52.264;6.154;2022-12-24T02:36:33;60.88;;;7.40;;
47021;SDS011;32779;52.264;6.154;2022-12-24T02:39:05;49.63;;;6.95;;
47021;SDS011;32779;52.264;6.154;2022-12-24T02:41:37;37.42;;;6.57;;
47021;SDS011;32779;52.264;6.154;2022-12-24T02:44:27;52.65;;;7.28;;
47021;SDS011;32779;52.264;6.154;2022-12-24T02:46:56;52.78;;;6.68;;
47021;SDS011;32779;52.264;6.154;2022-12-24T02:49:24;46.35;;;6.88;;
47021;SDS011;32779;52.264;6.154;2022-12-24T02:51:49;47.95;;;6.88;;
47021;SDS011;32779;52.264;6.154;2022-12-24T02:54:15;57.75;;;8.45;;
47021;SDS011;32779;52.264;6.154;2022-12-24T02:59:42;65.43;;;7.45;;
47021;SDS011;32779;52.264;6.154;2022-12-24T03:13:16;42.45;;;6.15;;
47021;SDS011;32779;52.264;6.154;2022-12-24T03:15:43;44.28;;;5.97;;
47021;SDS011;32779;52.264;6.154;2022-12-24T03:18:11;58.05;;;7.90;;
47021;SDS011;32779;52.264;6.154;2022-12-24T03:20:40;60.10;;;6.78;;
47021;SDS011;32779;52.264;6.154;2022-12-24T03:23:12;49.22;;;6.38;;
47021;SDS011;32779;52.264;6.154;2022-12-24T03:25:39;47.88;;;6.13;;
47021;SDS011;32779;52.264;6.154;2022-12-24T03:28:06;41.83;;;6.40;;
47021;SDS011;32779;52.264;6.154;2022-12-24T03:30:34;50.42;;;5.82;;
47021;SDS011;32779;52.264;6.154;2022-12-24T03:33:00;57.78;;;7.13;;
47021;SDS011;32779;52.264;6.154;2022-12-24T03:35:25;45.70;;;6.28;;
47021;SDS011;32779;52.264;6.154;2022-12-24T03:37:51;46.60;;;6.63;;
47021;SDS011;32779;52.264;6.154;2022-12-24T03:40:17;62.17;;;6.97;;
47021;SDS011;32779;52.264;6.154;2022-12-24T03:42:42;55.20;;;6.70;;
47021;SDS011;32779;52.264;6.154;2022-12-24T03:45:08;51.30;;;7.55;;
47021;SDS011;32779;52.264;6.154;2022-12-24T03:47:34;41.78;;;6.00;;
47021;SDS011;32779;52.264;6.154;2022-12-24T03:50:00;53.42;;;6.20;;
47021;SDS011;32779;52.264;6.154;2022-12-24T03:52:26;49.00;;;5.88;;
47021;SDS011;32779;52.264;6.154;2022-12-24T03:57:18;52.75;;;8.98;;
47021;SDS011;32779;52.264;6.154;2022-12-24T03:59:43;40.55;;;5.22;;
47021;SDS011;32779;52.264;6.154;2022-12-24T04:02:09;45.95;;;7.65;;
47021;SDS011;32779;52.264;6.154;2022-12-24T04:04:34;50.70;;;6.65;;
47021;SDS011;32779;52.264;6.154;2022-12-24T04:07:01;46.42;;;6.72;;
47021;SDS011;32779;52.264;6.154;2022-12-24T04:11:53;55.05;;;6.13;;
47021;SDS011;32779;52.264;6.154;2022-12-24T04:14:19;48.65;;;5.55;;
47021;SDS011;32779;52.264;6.154;2022-12-24T04:16:44;45.92;;;6.35;;
47021;SDS011;32779;52.264;6.154;2022-12-24T04:19:10;43.88;;;6.18;;
47021;SDS011;32779;52.264;6.154;2022-12-24T04:21:35;49.42;;;5.63;;
47021;SDS011;32779;52.264;6.154;2022-12-24T04:24:01;50.70;;;6.38;;
47021;SDS011;32779;52.264;6.154;2022-12-24T04:26:26;44.10;;;7.25;;
47021;SDS011;32779;52.264;6.154;2022-12-24T04:28:52;41.22;;;6.07;;
47021;SDS011;32779;52.264;6.154;2022-12-24T04:31:18;51.55;;;6.72;;
47021;SDS011;32779;52.264;6.154;2022-12-24T04:33:44;43.65;;;6.22;;
47021;SDS011;32779;52.264;6.154;2022-12-24T04:38:41;57.70;;;7.20;;
47021;SDS011;32779;52.264;6.154;2022-12-24T04:41:09;52.20;;;7.95;;
47021;SDS011;32779;52.264;6.154;2022-12-24T04:43:39;52.00;;;8.40;;
47021;SDS011;32779;52.264;6.154;2022-12-24T04:46:06;44.42;;;7.07;;
47021;SDS011;32779;52.264;6.154;2022-12-24T04:48:36;53.72;;;8.23;;
47021;SDS011;32779;52.264;6.154;2022-12-24T04:51:03;56.72;;;7.72;;
47021;SDS011;32779;52.264;6.154;2022-12-24T04:53:30;64.55;;;8.75;;
47021;SDS011;32779;52.264;6.154;2022-12-24T04:58:21;63.38;;;8.55;;
47021;SDS011;32779;52.264;6.154;2022-12-24T05:00:47;45.90;;;8.00;;
47021;SDS011;32779;52.264;6.154;2022-12-24T05:03:13;57.25;;;8.63;;
47021;SDS011;32779;52.264;6.154;2022-12-24T05:05:38;58.03;;;9.27;;
47021;SDS011;32779;52.264;6.154;2022-12-24T05:08:04;56.33;;;8.85;;
47021;SDS011;32779;52.264;6.154;2022-12-24T05:10:30;69.03;;;11.10;;
47021;SDS011;32779;52.264;6.154;2022-12-24T05:12:56;52.15;;;9.77;;
47021;SDS011;32779;52.264;6.154;2022-12-24T05:15:21;57.42;;;10.70;;
47021;SDS011;32779;52.264;6.154;2022-12-24T05:17:47;53.53;;;10.82;;
47021;SDS011;32779;52.264;6.154;2022-12-24T05:20:13;73.53;;;12.43;;
47021;SDS011;32779;52.264;6.154;2022-12-24T05:22:39;68.47;;;10.75;;
47021;SDS011;32779;52.264;6.154;2022-12-24T05:25:24;61.05;;;10.18;;
47021;SDS011;32779;52.264;6.154;2022-12-24T05:28:14;58.08;;;10.38;;
47021;SDS011;32779;52.264;6.154;2022-12-24T05:30:40;59.30;;;12.20;;
47021;SDS011;32779;52.264;6.154;2022-12-24T05:33:05;48.58;;;10.07;;
47021;SDS011;32779;52.264;6.154;2022-12-24T05:35:31;60.25;;;11.88;;
47021;SDS011;32779;52.264;6.154;2022-12-24T05:37:57;53.50;;;10.73;;
47021;SDS011;32779;52.264;6.154;2022-12-24T05:40:23;54.53;;;9.88;;
47021;SDS011;32779;52.264;6.154;2022-12-24T05:42:49;53.35;;;11.40;;
47021;SDS011;32779;52.264;6.154;2022-12-24T05:45:15;68.35;;;12.35;;
47021;SDS011;32779;52.264;6.154;2022-12-24T05:47:40;72.25;;;12.40;;
47021;SDS011;32779;52.264;6.154;2022-12-24T05:50:06;62.17;;;11.75;;
47021;SDS011;32779;52.264;6.154;2022-12-24T05:54:57;59.20;;;11.15;;
47021;SDS011;32779;52.264;6.154;2022-12-24T05:57:23;56.72;;;10.85;;
47021;SDS011;32779;52.264;6.154;2022-12-24T05:59:49;73.85;;;9.85;;
47021;SDS011;32779;52.264;6.154;2022-12-24T06:02:14;60.08;;;11.68;;
47021;SDS011;32779;52.264;6.154;2022-12-24T06:04:40;58.28;;;10.68;;
47021;SDS011;32779;52.264;6.154;2022-12-24T06:07:05;60.35;;;10.70;;
47021;SDS011;32779;52.264;6.154;2022-12-24T06:09:31;60.17;;;9.95;;
47021;SDS011;32779;52.264;6.154;2022-12-24T06:11:57;47.10;;;10.75;;
47021;SDS011;32779;52.264;6.154;2022-12-24T06:14:22;62.95;;;10.80;;
47021;SDS011;32779;52.264;6.154;2022-12-24T06:16:48;55.50;;;9.75;;
47021;SDS011;32779;52.264;6.154;2022-12-24T06:19:14;63.08;;;11.63;;
47021;SDS011;32779;52.264;6.154;2022-12-24T06:21:39;52.88;;;10.38;;
47021;SDS011;32779;52.264;6.154;2022-12-24T06:24:05;50.40;;;9.93;;
47021;SDS011;32779;52.264;6.154;2022-12-24T06:26:31;48.30;;;10.15;;
47021;SDS011;32779;52.264;6.154;2022-12-24T06:28:56;51.92;;;10.05;;
47021;SDS011;32779;52.264;6.154;2022-12-24T06:31:22;58.03;;;9.52;;
47021;SDS011;32779;52.264;6.154;2022-12-24T06:33:48;53.10;;;10.38;;
47021;SDS011;32779;52.264;6.154;2022-12-24T06:36:16;56.72;;;9.57;;
47021;SDS011;32779;52.264;6.154;2022-12-24T06:38:47;46.85;;;10.00;;
47021;SDS011;32779;52.264;6.154;2022-12-24T06:43:42;47.05;;;10.07;;
47021;SDS011;32779;52.264;6.154;2022-12-24T06:46:11;53.65;;;11.20;;
47021;SDS011;32779;52.264;6.154;2022-12-24T06:51:03;58.00;;;10.55;;
47021;SDS011;32779;52.264;6.154;2022-12-24T06:53:29;60.17;;;9.18;;
47021;SDS011;32779;52.264;6.154;2022-12-24T06:56:05;55.72;;;9.57;;
47021;SDS011;32779;52.264;6.154;2022-12-24T06:58:33;57.65;;;9.60;;
47021;SDS011;32779;52.264;6.154;2022-12-24T07:03:32;43.10;;;8.88;;
47021;SDS011;32779;52.264;6.154;2022-12-24T07:05:57;48.55;;;9.68;;
47021;SDS011;32779;52.264;6.154;2022-12-24T07:08:23;48.83;;;9.60;;
47021;SDS011;32779;52.264;6.154;2022-12-24T07:10:49;59.78;;;8.93;;
47021;SDS011;32779;52.264;6.154;2022-12-24T07:13:16;50.97;;;9.02;;
47021;SDS011;32779;52.264;6.154;2022-12-24T07:15:42;55.80;;;8.98;;
47021;SDS011;32779;52.264;6.154;2022-12-24T07:18:07;46.20;;;8.07;;
47021;SDS011;32779;52.264;6.154;2022-12-24T07:20:33;66.20;;;9.30;;
47021;SDS011;32779;52.264;6.154;2022-12-24T07:22:59;58.50;;;8.65;;
47021;SDS011;32779;52.264;6.154;2022-12-24T07:25:24;45.70;;;9.15;;
47021;SDS011;32779;52.264;6.154;2022-12-24T07:27:50;55.13;;;9.98;;
47021;SDS011;32779;52.264;6.154;2022-12-24T07:30:16;44.05;;;8.30;;
47021;SDS011;32779;52.264;6.154;2022-12-24T07:32:42;53.28;;;8.73;;
47021;SDS011;32779;52.264;6.154;2022-12-24T07:35:08;61.28;;;9.40;;
47021;SDS011;32779;52.264;6.154;2022-12-24T07:37:33;51.03;;;8.75;;
47021;SDS011;32779;52.264;6.154;2022-12-24T07:40:02;54.00;;;9.57;;
47021;SDS011;32779;52.264;6.154;2022-12-24T07:42:31;52.55;;;10.00;;
47021;SDS011;32779;52.264;6.154;2022-12-24T07:44:57;57.20;;;9.93;;
47021;SDS011;32779;52.264;6.154;2022-12-24T07:47:23;63.58;;;10.75;;
47021;SDS011;32779;52.264;6.154;2022-12-24T07:49:48;71.40;;;10.88;;
47021;SDS011;32779;52.264;6.154;2022-12-24T07:52:14;63.72;;;9.85;;
47021;SDS011;32779;52.264;6.154;2022-12-24T07:54:40;66.53;;;10.75;;
47021;SDS011;32779;52.264;6.154;2022-12-24T07:57:06;55.05;;;10.32;;
47021;SDS011;32779;52.264;6.154;2022-12-24T07:59:31;68.65;;;11.40;;
47021;SDS011;32779;52.264;6.154;2022-12-24T08:01:57;67.15;;;10.20;;
47021;SDS011;32779;52.264;6.154;2022-12-24T08:04:22;60.78;;;9.82;;
47021;SDS011;32779;52.264;6.154;2022-12-24T08:06:48;63.53;;;11.07;;
47021;SDS011;32779;52.264;6.154;2022-12-24T08:09:13;49.70;;;8.93;;
47021;SDS011;32779;52.264;6.154;2022-12-24T08:11:39;57.60;;;9.52;;
47021;SDS011;32779;52.264;6.154;2022-12-24T08:14:05;47.65;;;9.27;;
47021;SDS011;32779;52.264;6.154;2022-12-24T08:16:30;49.70;;;9.55;;
47021;SDS011;32779;52.264;6.154;2022-12-24T08:18:56;63.25;;;9.48;;
47021;SDS011;32779;52.264;6.154;2022-12-24T08:21:21;73.10;;;9.43;;
47021;SDS011;32779;52.264;6.154;2022-12-24T08:23:47;64.90;;;10.85;;
47021;SDS011;32779;52.264;6.154;2022-12-24T08:26:13;62.00;;;9.38;;
47021;SDS011;32779;52.264;6.154;2022-12-24T08:28:38;63.08;;;10.43;;
47021;SDS011;32779;52.264;6.154;2022-12-24T08:31:04;59.72;;;10.23;;
47021;SDS011;32779;52.264;6.154;2022-12-24T08:33:30;50.05;;;10.57;;
47021;SDS011;32779;52.264;6.154;2022-12-24T08:35:56;62.60;;;10.77;;
47021;SDS011;32779;52.264;6.154;2022-12-24T08:38:22;56.10;;;10.23;;
47021;SDS011;32779;52.264;6.154;2022-12-24T08:40:47;57.20;;;9.98;;
47021;SDS011;32779;52.264;6.154;2022-12-24T08:45:40;57.80;;;9.32;;
47021;SDS011;32779;52.264;6.154;2022-12-24T08:48:06;46.58;;;7.50;;
47021;SDS011;32779;52.264;6.154;2022-12-24T08:50:33;50.33;;;8.23;;
47021;SDS011;32779;52.264;6.154;2022-12-24T08:52:58;63.85;;;9.80;;
47021;SDS011;32779;52.264;6.154;2022-12-24T08:55:24;56.83;;;9.93;;
47021;SDS011;32779;52.264;6.154;2022-12-24T08:57:50;51.83;;;9.25;;
47021;SDS011;32779;52.264;6.154;2022-12-24T09:00:15;60.45;;;9.48;;
47021;SDS011;32779;52.264;6.154;2022-12-24T09:02:42;57.35;;;9.93;;
47021;SDS011;32779;52.264;6.154;2022-12-24T09:05:07;57.92;;;8.57;;
47021;SDS011;32779;52.264;6.154;2022-12-24T09:07:33;61.45;;;9.80;;
47021;SDS011;32779;52.264;6.154;2022-12-24T09:09:58;61.05;;;9.05;;
47021;SDS011;32779;52.264;6.154;2022-12-24T09:12:24;57.70;;;8.82;;
47021;SDS011;32779;52.264;6.154;2022-12-24T09:14:50;66.20;;;9.80;;
47021;SDS011;32779;52.264;6.154;2022-12-24T09:17:16;63.78;;;9.93;;
47021;SDS011;32779;52.264;6.154;2022-12-24T09:19:42;64.32;;;11.13;;
47021;SDS011;32779;52.264;6.154;2022-12-24T09:22:07;38.28;;;8.30;;
47021;SDS011;32779;52.264;6.154;2022-12-24T09:24:33;55.17;;;8.80;;
47021;SDS011;32779;52.264;6.154;2022-12-24T09:27:00;62.60;;;9.02;;
47021;SDS011;32779;52.264;6.154;2022-12-24T09:29:26;52.85;;;9.15;;
47021;SDS011;32779;52.264;6.154;2022-12-24T09:31:52;59.47;;;9.75;;
47021;SDS011;32779;52.264;6.154;2022-12-24T09:34:19;53.78;;;8.70;;
47021;SDS011;32779;52.264;6.154;2022-12-24T09:36:44;51.05;;;8.35;;
47021;SDS011;32779;52.264;6.154;2022-12-24T09:39:10;52.03;;;8.68;;
47021;SDS011;32779;52.264;6.154;2022-12-24T09:44:24;57.33;;;11.00;;
47021;SDS011;32779;52.264;6.154;2022-12-24T09:46:59;57.10;;;10.48;;
47021;SDS011;32779;52.264;6.154;2022-12-24T09:49:33;56.83;;;10.70;;
47021;SDS011;32779;52.264;6.154;2022-12-24T09:57:00;59.15;;;8.75;;
47021;SDS011;32779;52.264;6.154;2022-12-24T09:59:39;60.67;;;9.18;;
47021;SDS011;32779;52.264;6.154;2022-12-24T10:02:11;54.83;;;7.75;;
47021;SDS011;32779;52.264;6.154;2022-12-24T10:04:42;48.15;;;7.40;;
47021;SDS011;32779;52.264;6.154;2022-12-24T10:07:27;51.75;;;9.35;;
47021;SDS011;32779;52.264;6.154;2022-12-24T10:10:19;48.42;;;7.25;;
47021;SDS011;32779;52.264;6.154;2022-12-24T10:17:59;53.58;;;10.15;;
47021;SDS011;32779;52.264;6.154;2022-12-24T10:20:59;51.33;;;9.75;;
47021;SDS011;32779;52.264;6.154;2022-12-24T10:29:14;40.90;;;7.05;;
47021;SDS011;32779;52.264;6.154;2022-12-24T10:31:53;48.22;;;9.38;;
47021;SDS011;32779;52.264;6.154;2022-12-24T10:34:24;48.45;;;6.93;;
47021;SDS011;32779;52.264;6.154;2022-12-24T10:36:54;38.97;;;6.90;;
47021;SDS011;32779;52.264;6.154;2022-12-24T10:39:22;43.83;;;12.68;;
47021;SDS011;32779;52.264;6.154;2022-12-24T10:41:50;60.75;;;11.68;;
47021;SDS011;32779;52.264;6.154;2022-12-24T10:44:18;48.95;;;9.55;;
47021;SDS011;32779;52.264;6.154;2022-12-24T10:46:47;50.00;;;8.35;;
47021;SDS011;32779;52.264;6.154;2022-12-24T10:49:47;44.85;;;8.90;;
47021;SDS011;32779;52.264;6.154;2022-12-24T10:52:14;49.63;;;7.55;;
47021;SDS011;32779;52.264;6.154;2022-12-24T10:55:05;38.55;;;6.95;;
47021;SDS011;32779;52.264;6.154;2022-12-24T10:57:32;44.97;;;7.07;;
47021;SDS011;32779;52.264;6.154;2022-12-24T10:59:58;52.10;;;8.15;;
47021;SDS011;32779;52.264;6.154;2022-12-24T11:04:53;54.72;;;10.50;;
47021;SDS011;32779;52.264;6.154;2022-12-24T11:07:20;41.72;;;8.10;;
47021;SDS011;32779;52.264;6.154;2022-12-24T11:09:57;42.25;;;7.63;;
47021;SDS011;32779;52.264;6.154;2022-12-24T11:12:25;44.20;;;7.30;;
47021;SDS011;32779;52.264;6.154;2022-12-24T11:15:04;52.85;;;7.60;;
47021;SDS011;32779;52.264;6.154;2022-12-24T11:17:42;42.65;;;7.68;;
47021;SDS011;32779;52.264;6.154;2022-12-24T11:20:20;39.90;;;7.38;;
47021;SDS011;32779;52.264;6.154;2022-12-24T11:22:52;39.78;;;7.47;;
47021;SDS011;32779;52.264;6.154;2022-12-24T11:25:22;43.50;;;7.75;;
47021;SDS011;32779;52.264;6.154;2022-12-24T11:27:56;40.47;;;7.25;;
47021;SDS011;32779;52.264;6.154;2022-12-24T11:30:35;44.25;;;7.32;;
47021;SDS011;32779;52.264;6.154;2022-12-24T11:35:27;36.17;;;6.88;;
47021;SDS011;32779;52.264;6.154;2022-12-24T11:40:29;47.92;;;7.85;;
47021;SDS011;32779;52.264;6.154;2022-12-24T11:43:00;41.53;;;6.65;;
47021;SDS011;32779;52.264;6.154;2022-12-24T11:45:28;37.95;;;7.43;;
47021;SDS011;32779;52.264;6.154;2022-12-24T11:47:55;39.15;;;6.50;;
47021;SDS011;32779;52.264;6.154;2022-12-24T11:52:51;33.15;;;5.95;;
47021;SDS011;32779;52.264;6.154;2022-12-24T12:01:13;43.42;;;6.70;;
47021;SDS011;32779;52.264;6.154;2022-12-24T12:03:55;40.30;;;6.38;;
47021;SDS011;32779;52.264;6.154;2022-12-24T12:06:26;34.50;;;6.57;;
47021;SDS011;32779;52.264;6.154;2022-12-24T12:08:54;32.70;;;5.60;;
47021;SDS011;32779;52.264;6.154;2022-12-24T12:11:24;39.90;;;7.60;;
47021;SDS011;32779;52.264;6.154;2022-12-24T12:13:51;41.20;;;6.78;;
47021;SDS011;32779;52.264;6.154;2022-12-24T12:18:56;31.90;;;6.13;;
47021;SDS011;32779;52.264;6.154;2022-12-24T12:21:37;41.03;;;6.75;;
47021;SDS011;32779;52.264;6.154;2022-12-24T12:24:24;41.72;;;6.60;;
47021;SDS011;32779;52.264;6.154;2022-12-24T12:27:00;38.33;;;5.82;;
47021;SDS011;32779;52.264;6.154;2022-12-24T12:29:54;37.05;;;6.43;;
47021;SDS011;32779;52.264;6.154;2022-12-24T12:32:29;43.15;;;6.43;;
47021;SDS011;32779;52.264;6.154;2022-12-24T12:35:56;42.53;;;7.35;;
47021;SDS011;32779;52.264;6.154;2022-12-24T12:37:59;34.35;;;6.60;;
47021;SDS011;32779;52.264;6.154;2022-12-24T12:46:45;28.67;;;5.63;;
47021;SDS011;32779;52.264;6.154;2022-12-24T12:57:51;55.45;;;18.35;;
47021;SDS011;32779;52.264;6.154;2022-12-24T13:00:22;34.88;;;7.18;;
47021;SDS011;32779;52.264;6.154;2022-12-24T13:02:55;31.88;;;7.63;;
47021;SDS011;32779;52.264;6.154;2022-12-24T13:08:02;32.28;;;6.55;;
47021;SDS011;32779;52.264;6.154;2022-12-24T13:21:21;38.08;;;5.82;;
47021;SDS011;32779;52.264;6.154;2022-12-24T13:23:49;26.17;;;5.10;;
47021;SDS011;32779;52.264;6.154;2022-12-24T13:26:15;29.65;;;4.68;;
47021;SDS011;32779;52.264;6.154;2022-12-24T13:28:41;27.08;;;4.90;;
47021;SDS011;32779;52.264;6.154;2022-12-24T13:36:05;26.33;;;4.25;;
47021;SDS011;32779;52.264;6.154;2022-12-24T13:44:14;35.05;;;5.72;;
47021;SDS011;32779;52.264;6.154;2022-12-24T13:46:48;21.27;;;4.75;;
47021;SDS011;32779;52.264;6.154;2022-12-24T13:49:37;24.95;;;4.20;;
47021;SDS011;32779;52.264;6.154;2022-12-24T14:02:54;27.45;;;4.18;;
47021;SDS011;32779;52.264;6.154;2022-12-24T14:08:12;29.90;;;4.03;;
47021;SDS011;32779;52.264;6.154;2022-12-24T14:10:58;20.67;;;4.68;;
47021;SDS011;32779;52.264;6.154;2022-12-24T14:16:10;21.55;;;3.45;;
47021;SDS011;32779;52.264;6.154;2022-12-24T14:18:43;27.85;;;4.22;;
47021;SDS011;32779;52.264;6.154;2022-12-24T14:21:21;23.10;;;4.03;;
47021;SDS011;32779;52.264;6.154;2022-12-24T14:23:56;23.65;;;3.75;;
47021;SDS011;32779;52.264;6.154;2022-12-24T14:26:32;33.53;;;5.20;;
47021;SDS011;32779;52.264;6.154;2022-12-24T14:29:07;26.67;;;4.25;;
47021;SDS011;32779;52.264;6.154;2022-12-24T14:31:49;17.70;;;3.50;;
47021;SDS011;32779;52.264;6.154;2022-12-24T14:34:16;20.85;;;4.20;;
47021;SDS011;32779;52.264;6.154;2022-12-24T14:36:42;23.65;;;3.78;;
47021;SDS011;32779;52.264;6.154;2022-12-24T14:39:10;28.35;;;4.35;;
47021;SDS011;32779;52.264;6.154;2022-12-24T14:45:16;18.98;;;3.63;;
47021;SDS011;32779;52.264;6.154;2022-12-24T14:47:58;30.83;;;4.80;;
47021;SDS011;32779;52.264;6.154;2022-12-24T14:50:50;23.27;;;4.38;;
47021;SDS011;32779;52.264;6.154;2022-12-24T14:53:57;26.50;;;4.47;;
47021;SDS011;32779;52.264;6.154;2022-12-24T14:57:05;24.90;;;4.00;;
47021;SDS011;32779;52.264;6.154;2022-12-24T15:02:24;32.70;;;5.13;;
47021;SDS011;32779;52.264;6.154;2022-12-24T15:07:37;24.40;;;4.47;;
47021;SDS011;32779;52.264;6.154;2022-12-24T15:12:55;33.15;;;5.68;;
47021;SDS011;32779;52.264;6.154;2022-12-24T15:15:22;33.83;;;5.60;;
47021;SDS011;32779;52.264;6.154;2022-12-24T15:17:48;34.33;;;5.55;;
47021;SDS011;32779;52.264;6.154;2022-12-24T15:20:15;33.75;;;5.32;;
47021;SDS011;32779;52.264;6.154;2022-12-24T15:22:43;29.30;;;5.70;;
47021;SDS011;32779;52.264;6.154;2022-12-24T15:25:27;28.38;;;5.35;;
47021;SDS011;32779;52.264;6.154;2022-12-24T15:27:54;22.67;;;6.05;;
47021;SDS011;32779;52.264;6.154;2022-12-24T15:30:22;24.55;;;5.18;;
47021;SDS011;32779;52.264;6.154;2022-12-24T15:32:50;31.08;;;6.70;;
47021;SDS011;32779;52.264;6.154;2022-12-24T15:38:27;28.40;;;7.47;;
47021;SDS011;32779;52.264;6.154;2022-12-24T15:40:56;34.47;;;7.03;;
47021;SDS011;32779;52.264;6.154;2022-12-24T15:43:22;28.27;;;6.22;;
47021;SDS011;32779;52.264;6.154;2022-12-24T15:48:16;25.17;;;5.32;;
47021;SDS011;32779;52.264;6.154;2022-12-24T15:50:53;35.47;;;6.60;;
47021;SDS011;32779;52.264;6.154;2022-12-24T15:53:28;36.85;;;7.20;;
47021;SDS011;32779;52.264;6.154;2022-12-24T15:56:36;42.60;;;12.00;;
47021;SDS011;32779;52.264;6.154;2022-12-24T16:05:18;36.40;;;11.10;;
47021;SDS011;32779;52.264;6.154;2022-12-24T16:10:34;47.42;;;9.70;;
47021;SDS011;32779;52.264;6.154;2022-12-24T16:13:02;40.50;;;8.80;;
47021;SDS011;32779;52.264;6.154;2022-12-24T16:15:43;35.95;;;8.40;;
47021;SDS011;32779;52.264;6.154;2022-12-24T16:18:15;42.67;;;9.23;;
47021;SDS011;32779;52.264;6.154;2022-12-24T16:20:46;37.38;;;9.32;;
47021;SDS011;32779;52.264;6.154;2022-12-24T16:23:17;29.48;;;9.18;;
47021;SDS011;32779;52.264;6.154;2022-12-24T16:25:45;47.05;;;15.00;;
47021;SDS011;32779;52.264;6.154;2022-12-24T16:28:11;57.33;;;27.73;;
47021;SDS011;32779;52.264;6.154;2022-12-24T16:30:38;65.25;;;27.42;;
47021;SDS011;32779;52.264;6.154;2022-12-24T16:33:03;54.63;;;22.25;;
47021;SDS011;32779;52.264;6.154;2022-12-24T16:35:30;43.08;;;15.85;;
47021;SDS011;32779;52.264;6.154;2022-12-24T16:37:58;45.88;;;15.45;;
47021;SDS011;32779;52.264;6.154;2022-12-24T16:40:23;47.08;;;17.92;;
47021;SDS011;32779;52.264;6.154;2022-12-24T16:42:49;42.03;;;17.55;;
47021;SDS011;32779;52.264;6.154;2022-12-24T16:45:34;40.50;;;16.70;;
47021;SDS011;32779;52.264;6.154;2022-12-24T16:48:01;36.90;;;14.45;;
47021;SDS011;32779;52.264;6.154;2022-12-24T16:50:29;46.50;;;13.02;;
47021;SDS011;32779;52.264;6.154;2022-12-24T16:52:54;65.70;;;34.33;;
47021;SDS011;32779;52.264;6.154;2022-12-24T16:55:20;88.65;;;45.13;;
47021;SDS011;32779;52.264;6.154;2022-12-24T16:57:45;77.63;;;37.53;;
47021;SDS011;32779;52.264;6.154;2022-12-24T17:00:15;60.72;;;32.15;;
47021;SDS011;32779;52.264;6.154;2022-12-24T17:02:44;67.85;;;33.72;;
47021;SDS011;32779;52.264;6.154;2022-12-24T17:05:10;74.82;;;38.92;;
47021;SDS011;32779;52.264;6.154;2022-12-24T17:07:36;70.72;;;31.65;;
47021;SDS011;32779;52.264;6.154;2022-12-24T17:10:02;64.40;;;26.65;;
47021;SDS011;32779;52.264;6.154;2022-12-24T17:12:28;49.60;;;21.25;;
47021;SDS011;32779;52.264;6.154;2022-12-24T17:14:54;44.75;;;18.33;;
47021;SDS011;32779;52.264;6.154;2022-12-24T17:17:26;52.28;;;15.48;;
47021;SDS011;32779;52.264;6.154;2022-12-24T17:19:53;46.25;;;12.25;;
47021;SDS011;32779;52.264;6.154;2022-12-24T17:24:45;48.38;;;12.20;;
47021;SDS011;32779;52.264;6.154;2022-12-24T17:27:11;48.08;;;14.82;;
47021;SDS011;32779;52.264;6.154;2022-12-24T17:29:37;55.65;;;17.85;;
47021;SDS011;32779;52.264;6.154;2022-12-24T17:32:03;50.55;;;15.95;;
47021;SDS011;32779;52.264;6.154;2022-12-24T17:34:32;45.55;;;14.07;;
47021;SDS011;32779;52.264;6.154;2022-12-24T17:36:57;51.42;;;14.60;;
47021;SDS011;32779;52.264;6.154;2022-12-24T17:39:23;41.63;;;12.45;;